sensor_id;sensor_type;location;lat;lon;timestamp;temperature;humidity
27793;DHT22;15174;48.190;11.462;2024-03-23T19:53:07;3.70;99.90
27793;DHT22;15174;48.190;11.462;2024-03-23T19:55:36;3.50;99.90
27793;DHT22;15174;48.190;11.462;2024-03-23T19:58:05;3.40;99.90
27793;DHT22;15174;48.190;11.462;2024-03-23T20:00:33;3.40;99.90
27793;DHT22;15174;48.190;11.462;2024-03-23T20:02:59;3.40;99.90
27793;DHT22;15174;48.190;11.462;2024-03-23T20:05:30;3.40;99.90
27793;DHT22;15174;48.190;11.462;2024-03-23T20:07:55;3.40;99.90
27793;DHT22;15174;48.190;11.462;2024-03-23T20:10:21;3.50;99.90
27793;DHT22;15174;48.190;11.462;2024-03-23T20:12:47;3.60;99.90
27793;DHT22;15174;48.190;11.462;2024-03-23T20:15:14;3.60;99.90
27793;DHT22;15174;48.190;11.462;2024-03-23T20:17:39;3.60;99.90
27793;DHT22;15174;48.190;11.462;2024-03-23T20:20:05;3.50;99.90
27793;DHT22;15174;48.190;11.462;2024-03-23T20:22:31;3.50;99.90
27793;DHT22;15174;48.190;11.462;2024-03-23T20:24:57;3.40;99.90
27793;DHT22;15174;48.190;11.462;2024-03-23T20:39:36;3.80;99.90
27793;DHT22;15174;48.190;11.462;2024-03-23T20:42:01;3.80;99.90
27793;DHT22;15174;48.190;11.462;2024-03-23T20:44:27;3.70;99.90
27793;DHT22;15174;48.190;11.462;2024-03-23T20:46:53;3.60;99.90
27793;DHT22;15174;48.190;11.462;2024-03-23T20:49:18;3.60;99.90
27793;DHT22;15174;48.190;11.462;2024-03-23T20:51:45;3.60;99.90
27793;DHT22;15174;48.190;11.462;2024-03-23T20:54:10;3.60;99.90
27793;DHT22;15174;48.190;11.462;2024-03-23T20:56:41;3.60;99.90
27793;DHT22;15174;48.190;11.462;2024-03-23T20:59:07;3.60;99.90
27793;DHT22;15174;48.190;11.462;2024-03-23T21:01:33;3.70;99.90
27793;DHT22;15174;48.190;11.462;2024-03-23T21:03:59;3.60;99.90
27793;DHT22;15174;48.190;11.462;2024-03-23T21:06:25;3.70;99.90
27793;DHT22;15174;48.190;11.462;2024-03-23T21:08:50;3.70;99.90
27793;DHT22;15174;48.190;11.462;2024-03-23T21:11:16;3.80;99.90
27793;DHT22;15174;48.190;11.462;2024-03-23T21:13:41;3.90;99.90
27793;DHT22;15174;48.190;11.462;2024-03-23T21:16:07;3.90;99.90
27793;DHT22;15174;48.190;11.462;2024-03-23T21:18:33;3.80;99.90
27793;DHT22;15174;48.190;11.462;2024-03-23T21:21:01;3.90;99.90
27793;DHT22;15174;48.190;11.462;2024-03-23T21:23:28;3.80;99.90
27793;DHT22;15174;48.190;11.462;2024-03-23T21:26:02;3.70;99.90
27793;DHT22;15174;48.190;11.462;2024-03-23T21:28:28;3.70;99.90
27793;DHT22;15174;48.190;11.462;2024-03-23T21:30:54;3.70;99.90
27793;DHT22;15174;48.190;11.462;2024-03-23T21:33:20;3.70;99.90
27793;DHT22;15174;48.190;11.462;2024-03-23T21:35:53;3.70;99.90
27793;DHT22;15174;48.190;11.462;2024-03-23T21:38:20;3.60;99.90
27793;DHT22;15174;48.190;11.462;2024-03-23T21:40:56;3.50;99.90
27793;DHT22;15174;48.190;11.462;2024-03-23T21:43:24;3.60;99.90
27793;DHT22;15174;48.190;11.462;2024-03-23T21:48:22;3.50;99.90
27793;DHT22;15174;48.190;11.462;2024-03-23T21:50:48;3.50;99.90
27793;DHT22;15174;48.190;11.462;2024-03-23T21:53:14;3.50;99.90
27793;DHT22;15174;48.190;11.462;2024-03-23T21:55:48;3.50;99.90
27793;DHT22;15174;48.190;11.462;2024-03-23T21:58:14;3.40;99.90
27793;DHT22;15174;48.190;11.462;2024-03-23T22:00:43;3.30;99.90
27793;DHT22;15174;48.190;11.462;2024-03-23T22:03:09;3.30;99.90
27793;DHT22;15174;48.190;11.462;2024-03-23T22:05:34;3.30;99.90
27793;DHT22;15174;48.190;11.462;2024-03-23T22:08:00;3.30;99.90
27793;DHT22;15174;48.190;11.462;2024-03-23T22:10:27;3.20;99.90
27793;DHT22;15174;48.190;11.462;2024-03-23T22:12:53;3.20;99.90
27793;DHT22;15174;48.190;11.462;2024-03-23T22:15:19;3.10;99.90
27793;DHT22;15174;48.190;11.462;2024-03-23T22:17:44;3.10;99.90
27793;DHT22;15174;48.190;11.462;2024-03-23T22:20:10;3.10;99.90
27793;DHT22;15174;48.190;11.462;2024-03-23T22:22:36;3.20;99.90
27793;DHT22;15174;48.190;11.462;2024-03-23T22:25:02;3.20;99.90
27793;DHT22;15174;48.190;11.462;2024-03-23T22:27:27;3.30;99.90
27793;DHT22;15174;48.190;11.462;2024-03-23T22:29:54;3.30;99.90
27793;DHT22;15174;48.190;11.462;2024-03-23T22:32:20;3.30;99.90
27793;DHT22;15174;48.190;11.462;2024-03-23T22:34:47;3.30;99.90
27793;DHT22;15174;48.190;11.462;2024-03-23T22:37:13;3.30;99.90
27793;DHT22;15174;48.190;11.462;2024-03-23T22:39:38;3.30;99.90
27793;DHT22;15174;48.190;11.462;2024-03-23T22:42:04;3.30;99.90
27793;DHT22;15174;48.190;11.462;2024-03-23T22:44:30;3.20;99.90
27793;DHT22;15174;48.190;11.462;2024-03-23T22:46:55;3.20;99.90
27793;DHT22;15174;48.190;11.462;2024-03-23T22:49:21;3.20;99.90
27793;DHT22;15174;48.190;11.462;2024-03-23T22:51:46;3.30;99.90
27793;DHT22;15174;48.190;11.462;2024-03-23T22:54:12;3.20;99.90
27793;DHT22;15174;48.190;11.462;2024-03-23T22:56:37;3.10;99.90
27793;DHT22;15174;48.190;11.462;2024-03-23T22:59:03;3.10;99.90
27793;DHT22;15174;48.190;11.462;2024-03-23T23:01:29;3.10;99.90
27793;DHT22;15174;48.190;11.462;2024-03-23T23:03:55;3.20;99.90
27793;DHT22;15174;48.190;11.462;2024-03-23T23:06:21;3.30;99.90
27793;DHT22;15174;48.190;11.462;2024-03-23T23:08:46;3.50;99.90
27793;DHT22;15174;48.190;11.462;2024-03-23T23:11:12;3.50;99.90
27793;DHT22;15174;48.190;11.462;2024-03-23T23:13:38;3.50;99.90
27793;DHT22;15174;48.190;11.462;2024-03-23T23:16:04;3.50;99.90
27793;DHT22;15174;48.190;11.462;2024-03-23T23:18:31;3.40;99.90
27793;DHT22;15174;48.190;11.462;2024-03-23T23:20:58;3.30;99.90
27793;DHT22;15174;48.190;11.462;2024-03-23T23:23:25;3.20;99.90
27793;DHT22;15174;48.190;11.462;2024-03-23T23:25:52;3.30;99.90
27793;DHT22;15174;48.190;11.462;2024-03-23T23:28:23;3.30;99.90
27793;DHT22;15174;48.190;11.462;2024-03-23T23:30:59;3.40;99.90
27793;DHT22;15174;48.190;11.462;2024-03-23T23:33:27;3.40;99.90
27793;DHT22;15174;48.190;11.462;2024-03-23T23:35:53;3.40;99.90
27793;DHT22;15174;48.190;11.462;2024-03-23T23:38:19;3.40;99.90
27793;DHT22;15174;48.190;11.462;2024-03-23T23:40:48;3.40;99.90
27793;DHT22;15174;48.190;11.462;2024-03-23T23:43:15;3.40;99.90
27793;DHT22;15174;48.190;11.462;2024-03-23T23:45:42;3.40;99.90
27793;DHT22;15174;48.190;11.462;2024-03-23T23:48:09;3.30;99.90
27793;DHT22;15174;48.190;11.462;2024-03-23T23:50:37;3.20;99.90
27793;DHT22;15174;48.190;11.462;2024-03-23T23:53:04;3.10;99.90
27793;DHT22;15174;48.190;11.462;2024-03-23T23:55:31;3.10;99.90
27793;DHT22;15174;48.190;11.462;2024-03-23T23:57:58;3.10;99.90
